sensor_id;sensor_type;location;lat;lon;timestamp;temperature;humidity
18268;DHT22;9260;49.998;19.880;2024-03-08T00:08:03;-0.10;1.00
18268;DHT22;9260;49.998;19.880;2024-03-08T00:18:09;-0.10;1.00
18268;DHT22;9260;49.998;19.880;2024-03-08T00:28:13;0.00;1.00
18268;DHT22;9260;49.998;19.880;2024-03-08T00:38:20;-0.10;1.00
18268;DHT22;9260;49.998;19.880;2024-03-08T00:48:23;-0.10;1.00
18268;DHT22;9260;49.998;19.880;2024-03-08T00:58:27;-0.20;1.00
18268;DHT22;9260;49.998;19.880;2024-03-08T01:08:31;0.00;1.00
18268;DHT22;9260;49.998;19.880;2024-03-08T01:18:35;1.60;1.00
18268;DHT22;9260;49.998;19.880;2024-03-08T01:28:39;0.00;1.00
18268;DHT22;9260;49.998;19.880;2024-03-08T01:38:43;-0.30;1.00
18268;DHT22;9260;49.998;19.880;2024-03-08T01:48:46;0.10;1.00
18268;DHT22;9260;49.998;19.880;2024-03-08T01:58:52;0.30;1.00
18268;DHT22;9260;49.998;19.880;2024-03-08T02:08:55;-0.20;1.00
18268;DHT22;9260;49.998;19.880;2024-03-08T02:18:59;-0.20;1.00
18268;DHT22;9260;49.998;19.880;2024-03-08T02:29:04;-0.20;1.00
18268;DHT22;9260;49.998;19.880;2024-03-08T02:39:07;-0.10;1.00
18268;DHT22;9260;49.998;19.880;2024-03-08T02:49:13;0.10;1.00
18268;DHT22;9260;49.998;19.880;2024-03-08T02:59:16;-0.20;1.00
18268;DHT22;9260;49.998;19.880;2024-03-08T03:09:21;-0.20;1.00
18268;DHT22;9260;49.998;19.880;2024-03-08T03:19:29;-0.40;1.00
18268;DHT22;9260;49.998;19.880;2024-03-08T03:29:33;-0.20;1.00
18268;DHT22;9260;49.998;19.880;2024-03-08T03:39:36;-0.30;1.00
18268;DHT22;9260;49.998;19.880;2024-03-08T03:49:51;-0.30;1.00
18268;DHT22;9260;49.998;19.880;2024-03-08T03:59:55;-0.20;1.00
18268;DHT22;9260;49.998;19.880;2024-03-08T04:10:01;-0.40;1.00
18268;DHT22;9260;49.998;19.880;2024-03-08T04:20:05;-0.60;1.00
18268;DHT22;9260;49.998;19.880;2024-03-08T04:30:13;-0.60;1.00
18268;DHT22;9260;49.998;19.880;2024-03-08T04:40:16;-0.50;1.00
18268;DHT22;9260;49.998;19.880;2024-03-08T04:50:22;-0.20;1.00
18268;DHT22;9260;49.998;19.880;2024-03-08T05:00:25;-0.50;1.00
18268;DHT22;9260;49.998;19.880;2024-03-08T05:10:30;-0.60;1.00
18268;DHT22;9260;49.998;19.880;2024-03-08T05:20:33;-0.50;1.00
18268;DHT22;9260;49.998;19.880;2024-03-08T05:30:40;-0.70;1.00
18268;DHT22;9260;49.998;19.880;2024-03-08T05:40:43;-0.80;1.00
18268;DHT22;9260;49.998;19.880;2024-03-08T05:50:47;-0.30;1.00
18268;DHT22;9260;49.998;19.880;2024-03-08T06:00:51;-0.60;1.00
18268;DHT22;9260;49.998;19.880;2024-03-08T06:10:56;-0.20;1.00
18268;DHT22;9260;49.998;19.880;2024-03-08T06:21:00;-0.40;1.00
18268;DHT22;9260;49.998;19.880;2024-03-08T06:31:05;-0.20;1.00
18268;DHT22;9260;49.998;19.880;2024-03-08T06:41:09;1.40;1.00
18268;DHT22;9260;49.998;19.880;2024-03-08T06:51:18;-0.10;1.00
18268;DHT22;9260;49.998;19.880;2024-03-08T07:01:21;-0.20;1.00
18268;DHT22;9260;49.998;19.880;2024-03-08T07:11:26;-0.10;1.00
18268;DHT22;9260;49.998;19.880;2024-03-08T07:21:30;0.20;1.00
18268;DHT22;9260;49.998;19.880;2024-03-08T07:31:34;0.20;1.00
18268;DHT22;9260;49.998;19.880;2024-03-08T07:41:52;0.30;1.00
18268;DHT22;9260;49.998;19.880;2024-03-08T07:51:57;0.20;1.00
18268;DHT22;9260;49.998;19.880;2024-03-08T08:02:01;0.30;1.00
18268;DHT22;9260;49.998;19.880;2024-03-08T08:12:06;0.80;1.00
18268;DHT22;9260;49.998;19.880;2024-03-08T08:22:11;1.30;1.00
18268;DHT22;9260;49.998;19.880;2024-03-08T08:32:16;1.30;1.00
18268;DHT22;9260;49.998;19.880;2024-03-08T08:42:20;1.40;1.00
18268;DHT22;9260;49.998;19.880;2024-03-08T08:52:24;1.60;1.00
18268;DHT22;9260;49.998;19.880;2024-03-08T09:02:28;1.40;1.00
18268;DHT22;9260;49.998;19.880;2024-03-08T09:12:32;1.30;1.00
18268;DHT22;9260;49.998;19.880;2024-03-08T09:22:36;1.70;1.00
18268;DHT22;9260;49.998;19.880;2024-03-08T09:32:40;2.10;1.00
18268;DHT22;9260;49.998;19.880;2024-03-08T09:42:45;1.90;1.00
18268;DHT22;9260;49.998;19.880;2024-03-08T09:52:50;2.30;1.00
18268;DHT22;9260;49.998;19.880;2024-03-08T10:02:53;2.70;1.00
18268;DHT22;9260;49.998;19.880;2024-03-08T10:12:57;2.70;1.00
18268;DHT22;9260;49.998;19.880;2024-03-08T10:23:01;2.40;1.00
18268;DHT22;9260;49.998;19.880;2024-03-08T10:33:14;3.00;1.00
18268;DHT22;9260;49.998;19.880;2024-03-08T10:43:20;3.20;1.00
18268;DHT22;9260;49.998;19.880;2024-03-08T10:53:30;3.50;1.00
18268;DHT22;9260;49.998;19.880;2024-03-08T11:03:46;4.40;1.00
18268;DHT22;9260;49.998;19.880;2024-03-08T11:13:56;7.30;1.00
18268;DHT22;9260;49.998;19.880;2024-03-08T11:24:00;7.50;1.00
18268;DHT22;9260;49.998;19.880;2024-03-08T11:34:04;8.80;1.00
18268;DHT22;9260;49.998;19.880;2024-03-08T11:44:18;8.70;1.00
18268;DHT22;9260;49.998;19.880;2024-03-08T11:54:23;8.40;1.00
18268;DHT22;9260;49.998;19.880;2024-03-08T12:04:26;11.50;1.00
18268;DHT22;9260;49.998;19.880;2024-03-08T12:14:31;10.90;1.00
18268;DHT22;9260;49.998;19.880;2024-03-08T12:24:34;13.40;1.00
18268;DHT22;9260;49.998;19.880;2024-03-08T12:34:40;22.10;1.00
18268;DHT22;9260;49.998;19.880;2024-03-08T12:44:44;22.90;1.00
18268;DHT22;9260;49.998;19.880;2024-03-08T12:54:49;26.80;1.00
18268;DHT22;9260;49.998;19.880;2024-03-08T13:04:53;27.50;1.00
18268;DHT22;9260;49.998;19.880;2024-03-08T13:15:00;25.90;1.00
18268;DHT22;9260;49.998;19.880;2024-03-08T13:25:04;27.10;1.00
18268;DHT22;9260;49.998;19.880;2024-03-08T13:35:09;26.30;1.00
18268;DHT22;9260;49.998;19.880;2024-03-08T13:45:14;26.30;1.00
18268;DHT22;9260;49.998;19.880;2024-03-08T13:55:21;27.40;1.00
18268;DHT22;9260;49.998;19.880;2024-03-08T14:05:24;24.70;1.00
18268;DHT22;9260;49.998;19.880;2024-03-08T14:15:29;23.00;1.00
18268;DHT22;9260;49.998;19.880;2024-03-08T14:25:33;21.70;1.00
18268;DHT22;9260;49.998;19.880;2024-03-08T14:35:38;19.00;1.00
18268;DHT22;9260;49.998;19.880;2024-03-08T14:45:41;16.50;1.00
18268;DHT22;9260;49.998;19.880;2024-03-08T14:55:46;14.00;1.00
18268;DHT22;9260;49.998;19.880;2024-03-08T15:05:49;10.60;1.00
18268;DHT22;9260;49.998;19.880;2024-03-08T15:15:54;6.00;1.00
18268;DHT22;9260;49.998;19.880;2024-03-08T15:25:58;5.60;1.00
18268;DHT22;9260;49.998;19.880;2024-03-08T15:36:03;6.10;1.00
18268;DHT22;9260;49.998;19.880;2024-03-08T15:46:10;4.00;1.00
18268;DHT22;9260;49.998;19.880;2024-03-08T15:56:15;3.40;1.00
18268;DHT22;9260;49.998;19.880;2024-03-08T16:06:18;2.80;1.00
18268;DHT22;9260;49.998;19.880;2024-03-08T16:16:24;1.80;1.00
18268;DHT22;9260;49.998;19.880;2024-03-08T16:26:28;1.10;1.00
18268;DHT22;9260;49.998;19.880;2024-03-08T16:36:43;0.80;1.00
18268;DHT22;9260;49.998;19.880;2024-03-08T16:46:48;0.60;1.00
18268;DHT22;9260;49.998;19.880;2024-03-08T16:56:53;0.00;1.00
18268;DHT22;9260;49.998;19.880;2024-03-08T17:06:56;-0.40;1.00
18268;DHT22;9260;49.998;19.880;2024-03-08T17:17:02;-1.20;1.00
18268;DHT22;9260;49.998;19.880;2024-03-08T17:27:06;-1.50;1.00
18268;DHT22;9260;49.998;19.880;2024-03-08T17:37:11;-1.60;1.00
18268;DHT22;9260;49.998;19.880;2024-03-08T17:47:16;-1.80;1.00
18268;DHT22;9260;49.998;19.880;2024-03-08T17:57:22;-1.90;1.00
18268;DHT22;9260;49.998;19.880;2024-03-08T18:07:27;-2.20;1.00
18268;DHT22;9260;49.998;19.880;2024-03-08T18:17:32;-2.40;1.00
18268;DHT22;9260;49.998;19.880;2024-03-08T18:27:35;-2.40;1.00
18268;DHT22;9260;49.998;19.880;2024-03-08T18:37:40;-2.60;1.00
18268;DHT22;9260;49.998;19.880;2024-03-08T18:47:44;-2.70;1.00
18268;DHT22;9260;49.998;19.880;2024-03-08T18:57:50;-3.00;1.00
18268;DHT22;9260;49.998;19.880;2024-03-08T19:07:55;-3.10;1.00
18268;DHT22;9260;49.998;19.880;2024-03-08T19:18:01;-3.20;1.00
18268;DHT22;9260;49.998;19.880;2024-03-08T19:28:07;-2.90;1.00
18268;DHT22;9260;49.998;19.880;2024-03-08T19:38:12;-3.40;1.00
18268;DHT22;9260;49.998;19.880;2024-03-08T19:48:17;-3.80;1.00
18268;DHT22;9260;49.998;19.880;2024-03-08T19:58:25;-3.60;1.00
18268;DHT22;9260;49.998;19.880;2024-03-08T20:08:28;-3.80;1.00
18268;DHT22;9260;49.998;19.880;2024-03-08T20:18:33;-4.00;1.00
18268;DHT22;9260;49.998;19.880;2024-03-08T20:28:37;-4.00;1.00
18268;DHT22;9260;49.998;19.880;2024-03-08T20:38:45;-3.90;1.00
18268;DHT22;9260;49.998;19.880;2024-03-08T20:48:48;-4.30;1.00
18268;DHT22;9260;49.998;19.880;2024-03-08T20:58:53;-4.30;1.00
18268;DHT22;9260;49.998;19.880;2024-03-08T21:08:56;-4.20;1.00
18268;DHT22;9260;49.998;19.880;2024-03-08T21:19:00;-4.20;1.00
18268;DHT22;9260;49.998;19.880;2024-03-08T21:29:04;-4.70;1.00
18268;DHT22;9260;49.998;19.880;2024-03-08T21:39:08;-4.60;1.00
18268;DHT22;9260;49.998;19.880;2024-03-08T21:49:13;-4.80;1.00
18268;DHT22;9260;49.998;19.880;2024-03-08T21:59:19;-4.80;1.00
18268;DHT22;9260;49.998;19.880;2024-03-08T22:09:23;-4.70;1.00
18268;DHT22;9260;49.998;19.880;2024-03-08T22:19:27;-5.00;1.00
18268;DHT22;9260;49.998;19.880;2024-03-08T22:29:30;-4.70;1.00
18268;DHT22;9260;49.998;19.880;2024-03-08T22:39:35;-5.10;1.00
18268;DHT22;9260;49.998;19.880;2024-03-08T22:49:38;-5.30;1.00
18268;DHT22;9260;49.998;19.880;2024-03-08T22:59:43;-4.80;1.00
18268;DHT22;9260;49.998;19.880;2024-03-08T23:09:48;-4.90;1.00
18268;DHT22;9260;49.998;19.880;2024-03-08T23:19:53;-5.10;1.00
18268;DHT22;9260;49.998;19.880;2024-03-08T23:29:58;-5.20;1.00
18268;DHT22;9260;49.998;19.880;2024-03-08T23:40:05;-5.20;1.00
18268;DHT22;9260;49.998;19.880;2024-03-08T23:50:13;-5.10;1.00
